To NAV CANADA Home Page Login to a new session Search on AWWS site Feedback and Comments Disclaimer Vers la page française équivalente Tips FAQ What's new on the site To the Forecasts and Observations / NOTAM section To "File a Flight Plan" website Publications and other links Update of the User's profile FIC Telephone Numbers My Weather Data Folder Route Weather Data Regional Weather Data Local Weather Data To the Forecasts and Observations / NOTAM section
Request Generated 06/26/2017 at 22:35:07 UTC . Weather information available at that time is displayed.

METAR/TAF

SUDBURY/ON    

SPECI CYSB 262227Z 17004KT 6SM -SHRA BKN022CB OVC100 12/10 A2990 RMK
CB6AC2 SLP132=
METAR CYSB 262200Z VRB02KT 4SM -TSRA OVC018CB 11/10 A2990 RMK CB8 VIS
HIER NE SLP135=
METAR CYSB 262100Z 33004KT 6SM -TSRA BKN017CB OVC060 13/10 A2990 RMK
CB7SC1 SLP134 DENSITY ALT 1300FT=
METAR CYSB 262000Z 04006KT 15SM -TSRA SCT020CB OVC080 15/11 A2990 RMK
CB4AC4 SLP131 DENSITY ALT 1400FT=

TAF AMD CYSB 262211Z 2622/2708 VRB03KT P6SM -SHRA BKN030 BKN100 TEMPO
2622/2624 2SM TSRA BR OVC020CB
FM270000 VRB03KT P6SM -SHRA BKN030 BKN080 TEMPO 2700/2706 5SM
-SHRA BR BKN020 BKN080 PROB30 2700/2701 2SM TSRA BR SCT008
OVC015CB
FM270600 33003KT 6SM -SHRA BR SCT005 OVC020 PROB30 2706/2708 2SM
-SHRA BR OVC005
RMK NXT FCST BY 270200Z=
Your time UTC time
Weather data provided by Environment Canada and NAV CANADA